• Join FlightAware (Why Join?)
  • Login
  • US Flag 
06:11AM EDT


 

Airport Tracker/Info


-or-


 

Live Flight TrackerFlight Track Log ✈ N48FH ✈ 14-Jul-2013 ✈ KMRF - KCRP

Flight Track Log - Related Links

Times and Time Zones

All times are in EDT time to prevent confusion due to time zone crossing. See the N48FH flight status page for this flight to view local times or setup timezone preferences in your user account.

Time Position Orientation Groundspeed Altitude Reporting Facility
EDT Latitude Longitude Course Direction KTS MPH feet Rate Location/Type
10:17AM 30.3100 -104.0133 108° East 74 85 7,600  Level Houston Center
10:18AM 30.3017 -103.9839 108° East 120 138 8,200 480 Climbing Albuquerque Center
10:19AM 30.2967 -103.9483 99° East 114 131 8,600 240 Climbing Albuquerque Center
10:20AM 30.2900 -103.9100 101° East 116 133 8,800 60 Climbing Albuquerque Center
10:21AM 30.2825 -103.8681 102° East 125 144 8,800  Level Albuquerque Center
10:22AM 30.2750 -103.8217 101° East 136 157 8,800  Level Albuquerque Center
10:23AM 30.2667 -103.7661 100° East 145 167 8,800  Level Albuquerque Center
10:24AM 30.2594 -103.7211 101° East 145 167 8,800  Level Albuquerque Center
10:25AM 30.2522 -103.6744 100° East 145 167 8,800  Level Albuquerque Center
10:26AM 30.2436 -103.6253 101° East 149 171 8,800  Level Albuquerque Center
10:27AM 30.2367 -103.5786 100° East 149 171 8,800  Level Albuquerque Center
10:28AM 30.2294 -103.5322 100° East 147 169 8,800  Level Albuquerque Center
10:29AM 30.2225 -103.4867 100° East 146 168 8,800  Level Albuquerque Center
10:30AM 30.2147 -103.4322 99° East 144 166 8,800  Level Albuquerque Center
10:31AM 30.2083 -103.3872 99° East 144 166 8,800  Level Albuquerque Center
10:32AM 30.2017 -103.3419 100° East 143 165 8,800  Level Albuquerque Center
10:33AM 30.1925 -103.2975 103° East 142 163 8,800  Level Albuquerque Center
10:34AM 30.1847 -103.2514 101° East 145 167 8,800  Level Albuquerque Center
10:35AM 30.1778 -103.2064 100° East 144 166 8,800  Level Albuquerque Center
10:36AM 30.1708 -103.1619 100° East 143 165 8,800  Level Albuquerque Center
10:38AM 30.1622 -103.1069 100° East 144 166 8,800  Level Albuquerque Center
10:39AM 30.1556 -103.0606 99° East 145 167 8,800  Level Albuquerque Center
10:40AM 30.1475 -103.0161 102° East 144 166 8,800  Level Albuquerque Center
10:41AM 30.1406 -102.9711 100° East 144 166 8,800  Level Albuquerque Center
10:42AM 30.1325 -102.9272 102° East 142 163 8,800  Level Albuquerque Center
10:43AM 30.1256 -102.8822 100° East 142 163 8,800  Level Albuquerque Center
10:44AM 30.1192 -102.8378 99° East 143 165 8,800  Level Albuquerque Center
10:45AM 30.1108 -102.7856 100° East 139 160 8,800  Level Albuquerque Center
10:46AM 30.1031 -102.7425 102° East 139 160 8,800  Level Albuquerque Center
10:47AM 30.0950 -102.6981 102° East 139 160 8,800  Level Albuquerque Center
10:48AM 30.0881 -102.6547 100° East 140 161 8,800  Level Albuquerque Center
10:49AM 30.0803 -102.6106 101° East 140 161 8,800  Level Albuquerque Center
10:50AM 30.0733 -102.5675 101° East 139 160 8,800  Level Albuquerque Center
10:51AM 30.0667 -102.5236 100° East 139 160 8,900 60 Climbing Albuquerque Center
10:52AM 30.0567 -102.4725 103° East 138 159 9,000  Climbing Albuquerque Center
10:53AM 30.0489 -102.4289 102° East 138 159 9,000  Level Albuquerque Center
10:54AM 30.0411 -102.3850 102° East 139 160 9,000  Level Albuquerque Center
10:55AM 30.0322 -102.3408 103° East 140 161 9,000  Level Albuquerque Center
10:56AM 30.0250 -102.2972 101° East 139 160 9,000  Level Albuquerque Center
10:57AM 30.0181 -102.2533 100° East 139 160 9,000  Level Albuquerque Center
10:58AM 30.0106 -102.2114 102° East 138 159 9,000  Level Albuquerque Center
10:59AM 30.0008 -102.1611 103° East 136 157 9,000  Level Albuquerque Center
11:00AM 29.9933 -102.1192 102° East 135 155 9,000  Level Albuquerque Center
11:01AM 29.9869 -102.0772 100° East 134 154 9,000  Level Albuquerque Center
11:02AM 29.9794 -102.0361 102° East 134 154 9,000 -60 Level Albuquerque Center
11:04AM 29.9700 -101.9817 101° East 132 152 8,900 -60 Descending Houston Center
11:05AM 29.9631 -101.9389 101° East 134 154 8,900  Level Houston Center
11:06AM 29.9547 -101.8889 101° East 134 154 8,900  Level Houston Center
11:07AM 29.9478 -101.8483 101° East 132 152 8,900  Level Houston Center
11:08AM 29.9392 -101.8072 104° East 131 151 8,900  Level Houston Center
11:09AM 29.9317 -101.7664 102° East 131 151 8,900  Level Houston Center
11:10AM 29.9244 -101.7256 102° East 131 151 8,900  Level Houston Center
11:11AM 29.9183 -101.6847 100° East 130 150 8,900  Level Houston Center
11:12AM 29.9100 -101.6433 103° East 131 151 8,900  Level Houston Center
11:13AM 29.9003 -101.5925 102° East 133 153 8,900  Level Houston Center
11:14AM 29.8933 -101.5511 101° East 133 153 8,900  Level Houston Center
11:15AM 29.8869 -101.5103 100° East 132 152 8,900  Level Houston Center
11:16AM 29.8794 -101.4689 102° East 132 152 8,900  Level Houston Center
11:17AM 29.8711 -101.4272 103° East 132 152 8,900  Level Houston Center
11:18AM 29.8553 -101.3894 116° Southeast 132 152 8,900  Level Houston Center
11:19AM 29.8339 -101.3450 119° Southeast 132 152 8,900  Level Houston Center
11:20AM 29.8206 -101.3064 112° Southeast 132 152 8,900  Level Houston Center
11:21AM 29.8050 -101.2678 115° Southeast 133 153 8,900  Level Houston Center
11:22AM 29.7894 -101.2294 115° Southeast 133 153 8,900  Level Houston Center
11:23AM 29.7744 -101.1908 114° Southeast 132 152 8,900  Level Houston Center
11:24AM 29.7594 -101.1517 114° Southeast 133 153 8,900  Level Houston Center
11:25AM 29.7397 -101.1053 116° Southeast 133 153 8,900  Level Houston Center
11:26AM 29.7236 -101.0658 115° Southeast 135 155 8,900  Level Houston Center
11:27AM 29.7081 -101.0269 115° Southeast 135 155 8,900  Level Houston Center
11:28AM 29.6925 -100.9878 115° Southeast 135 155 8,900  Level Houston Center
11:29AM 29.6772 -100.9489 114° Southeast 135 155 8,900  Level Houston Center
11:30AM 29.6589 -100.9028 115° Southeast 133 153 8,900  Level Houston Center
11:31AM 29.6428 -100.8636 115° Southeast 134 154 8,900  Level Houston Center
11:32AM 29.6267 -100.8236 115° Southeast 136 157 8,900  Level Houston Center
11:33AM 29.6100 -100.7850 116° Southeast 137 158 8,900  Level Houston Center
11:34AM 29.5936 -100.7456 116° Southeast 137 158 8,900  Level Houston Center
11:36AM 29.5792 -100.7047 112° Southeast 138 159 8,900  Level Houston Center
11:37AM 29.5592 -100.6589 117° Southeast 136 157 8,900  Level Houston Center
11:38AM 29.5433 -100.6183 114° Southeast 138 159 8,900  Level Houston Center
11:39AM 29.5275 -100.5797 115° Southeast 137 158 8,900  Level Houston Center
11:40AM 29.5106 -100.5403 116° Southeast 137 158 8,900  Level Houston Center
11:41AM 29.4953 -100.5011 114° Southeast 137 158 8,900  Level Houston Center
11:42AM 29.4764 -100.4536 115° Southeast 137 158 8,900  Level Houston Center
11:43AM 29.4597 -100.4147 116° Southeast 136 157 8,900  Level Houston Center
11:44AM 29.4444 -100.3733 113° Southeast 139 160 8,900  Level Houston Center
11:45AM 29.4272 -100.3350 117° Southeast 137 158 8,900  Level Houston Center
11:46AM 29.4117 -100.2958 115° Southeast 136 157 8,900  Level Houston Center
11:47AM 29.3953 -100.2544 114° Southeast 141 162 8,900  Level Houston Center
11:48AM 29.3756 -100.2078 116° Southeast 138 159 8,900  Level Houston Center
11:49AM 29.3594 -100.1675 115° Southeast 138 159 8,900  Level Houston Center
11:50AM 29.3425 -100.1261 115° Southeast 143 165 8,900  Level Houston Center
11:51AM 29.3256 -100.0864 116° Southeast 141 162 8,900  Level Houston Center
11:52AM 29.3100 -100.0453 113° Southeast 141 162 8,900  Level Houston Center
11:53AM 29.2883 -99.9961 117° Southeast 145 167 8,900  Level Houston Center
11:54AM 29.2708 -99.9561 117° Southeast 144 166 8,900  Level Houston Center
11:55AM 29.2561 -99.9147 112° Southeast 142 163 8,900  Level Houston Center
11:56AM 29.2400 -99.8761 116° Southeast 138 159 9,000  Climbing Houston Center
11:57AM 29.2222 -99.8367 117° Southeast 140 161 8,900  Descending Houston Center
11:58AM 29.2044 -99.7972 117° Southeast 139 160 9,000  Climbing Houston Center
11:59AM 29.1861 -99.7489 113° Southeast 138 159 9,000  Level Houston Center
12:00PM 29.1694 -99.7072 115° Southeast 140 161 9,000 -60 Level Houston Center
12:01PM 29.1511 -99.6675 118° Southeast 142 163 8,900  Descending Houston Center
12:02PM 29.1358 -99.6275 114° Southeast 140 161 9,000  Climbing Houston Center
12:03PM 29.1192 -99.5861 115° Southeast 141 162 9,000  Level Houston Center
12:05PM 29.0975 -99.5375 117° Southeast 142 163 9,000 -60 Level Houston Center
12:06PM 29.0811 -99.4961 114° Southeast 142 163 8,900  Descending Houston Center
12:07PM 29.0642 -99.4558 116° Southeast 142 163 9,000  Climbing Houston Center
12:08PM 29.0469 -99.4156 116° Southeast 142 163 9,000  Level Houston Center
12:09PM 29.0294 -99.3772 118° Southeast 140 161 9,000 -60 Level Houston Center
12:10PM 29.0133 -99.3347 113° Southeast 141 162 8,900  Descending Houston Center
12:11PM 28.9922 -99.2869 117° Southeast 143 165 9,000  Climbing Houston Center
12:12PM 28.9733 -99.2425 116° Southeast 145 167 9,000  Level Houston Center
12:13PM 28.9569 -99.2019 115° Southeast 141 162 9,000 -60 Level Houston Center
12:14PM 28.9375 -99.1578 117° Southeast 144 166 8,900 -60 Descending Houston Center
12:15PM 28.9228 -99.1233 116° Southeast 140 161 8,900  Level Houston Center
12:16PM 28.9053 -99.0828 116° Southeast 141 162 9,000  Climbing Houston Center
12:17PM 28.8844 -99.0350 116° Southeast 140 161 9,000 -60 Level Houston Center
12:18PM 28.8683 -98.9944 114° Southeast 140 161 8,900  Descending Houston Center
12:19PM 28.8500 -98.9514 116° Southeast 140 161 9,000  Climbing Houston Center
12:20PM 28.8336 -98.9108 115° Southeast 142 163 9,000  Level Houston Center
12:21PM 28.8147 -98.8689 117° Southeast 140 161 9,000  Level Houston Center
12:22PM 28.7992 -98.8286 114° Southeast 140 161 9,000  Level Houston Center
12:23PM 28.7800 -98.7858 117° Southeast 141 162 9,000  Level Houston Center
12:24PM 28.7631 -98.7456 116° Southeast 141 162 9,000  Level Houston Center
12:25PM 28.7444 -98.7019 116° Southeast 144 166 9,000  Level Houston Center
12:26PM 28.7269 -98.6625 117° Southeast 141 162 9,000  Level Houston Center
12:27PM 28.7089 -98.6208 116° Southeast 137 158 9,000 -60 Level Houston Center
12:28PM 28.6944 -98.5864 116° Southeast 139 160 8,900  Descending Houston Center
12:29PM 28.6742 -98.5392 116° Southeast 140 161 9,000  Climbing Houston Center
12:30PM 28.6550 -98.4981 118° Southeast 142 163 8,900  Descending Houston Center
12:31PM 28.6383 -98.4589 116° Southeast 140 161 9,000  Climbing Houston Center
12:32PM 28.6219 -98.4197 115° Southeast 138 159 9,000 -60 Level Houston Center
12:33PM 28.6042 -98.3783 116° Southeast 136 157 8,900  Descending Houston Center
12:35PM 28.5875 -98.3394 116° Southeast 137 158 9,000  Climbing Houston Center
12:36PM 28.5703 -98.2997 116° Southeast 139 160 9,000  Level Houston Center
12:37PM 28.5533 -98.2606 116° Southeast 139 160 9,000  Level Houston Center
12:38PM 28.5328 -98.2139 117° Southeast 138 159 9,000  Level Houston Center
12:39PM 28.5161 -98.1744 116° Southeast 138 159 9,000  Level Houston Center
12:40PM 28.4958 -98.1369 122° Southeast 139 160 9,000 -120 Level Houston Center
12:41PM 28.4650 -98.1044 137° Southeast 146 168 8,800 -360 Descending Houston Center
12:41PM 28.4394 -98.0867 149° Southeast 166 191 8,500 -480 Descending Houston Center
12:42PM 28.4117 -98.0617 142° Southeast 168 193 8,200 -360 Descending Houston Center
12:43PM 28.3931 -98.0444 141° Southeast 160 184 8,000 -360 Descending Houston Center
12:44PM 28.3492 -98.0058 142° Southeast 164 189 7,600 -360 Descending Houston Center
12:45PM 28.3142 -97.9772 144° Southeast 160 184 7,300 -360 Descending Houston Center
12:46PM 28.2783 -97.9450 142° Southeast 162 186 6,900 -360 Descending Houston Center
12:47PM 28.2422 -97.9144 143° Southeast 162 186 6,600 -300 Descending Houston Center
12:48PM 28.2081 -97.8853 143° Southeast 158 182 6,300 -360 Descending Houston Center
12:49PM 28.1678 -97.8528 145° Southeast 156 180 5,900 -360 Descending Houston Center
12:50PM 28.1328 -97.8250 145° Southeast 155 178 5,600 -360 Descending Houston Center
12:51PM 28.0997 -97.7964 143° Southeast 153 176 5,200 -480 Descending Houston Center
12:52PM 28.0669 -97.7681 143° Southeast 151 174 4,700 -540 Descending Houston Center
12:53PM 28.0314 -97.7378 143° Southeast 151 174 4,200 -420 Descending Houston Center
12:54PM 27.9894 -97.7075 147° Southeast 147 169 3,800 -420 Descending Houston Center
12:55PM 27.9547 -97.6803 145° Southeast 154 177 3,400 -360 Descending Houston Center
12:56PM 27.9181 -97.6567 150° Southeast 153 176 3,100 -180 Descending Houston Center
12:57PM 27.8833 -97.6356 152° Southeast 152 175 3,100 -420 Level Houston Center
12:58PM 27.8489 -97.5939 133° Southeast 154 177 2,300 -840 Descending Houston Center
12:59PM 27.8247 -97.5664 135° Southeast 135 155 1,500 -840 Descending Houston Center
01:00PM 27.7942 -97.5353 138° Southeast 115 132 600 -780 Descending Houston Center
01:02PM 27.7667 -97.5000 156° South  Level FlightAware Approximate
01:09PM 27.7704 -97.5012 156° South  Level Estimated